createdAt,value
2023-04-23T00:00:12.809Z,15.00
2023-04-23T00:02:46.886Z,15.00
2023-04-23T00:05:16.480Z,15.00
2023-04-23T00:07:45.135Z,14.90
2023-04-23T00:10:14.024Z,14.90
2023-04-23T00:12:43.677Z,15.00
2023-04-23T00:15:13.829Z,14.90
2023-04-23T00:17:43.515Z,14.90
2023-04-23T00:20:11.972Z,14.90
2023-04-23T00:22:40.287Z,14.90
2023-04-23T00:25:09.542Z,14.90
2023-04-23T00:27:37.833Z,14.90
2023-04-23T00:30:07.275Z,14.90
2023-04-23T00:32:35.724Z,14.90
2023-04-23T00:35:05.901Z,14.90
2023-04-23T00:37:35.280Z,14.90
2023-04-23T00:40:04.582Z,14.90
2023-04-23T00:42:33.347Z,14.90
2023-04-23T00:45:02.791Z,14.90
2023-04-23T00:47:31.564Z,14.90
2023-04-23T00:50:00.862Z,14.90
2023-04-23T00:52:30.487Z,14.80
2023-04-23T00:54:58.961Z,14.90
2023-04-23T00:57:27.969Z,14.90
2023-04-23T00:59:58.401Z,14.90
2023-04-23T01:02:28.036Z,14.90
2023-04-23T01:04:57.015Z,14.80
2023-04-23T01:07:25.493Z,14.90
2023-04-23T01:09:55.257Z,14.80
2023-04-23T01:12:24.351Z,14.80
2023-04-23T01:14:53.148Z,14.80
2023-04-23T01:17:21.543Z,14.80
2023-04-23T01:19:50.232Z,14.80
2023-04-23T01:22:19.873Z,14.80
2023-04-23T01:24:49.879Z,14.80
2023-04-23T01:27:19.970Z,14.80
2023-04-23T01:29:49.260Z,14.80
2023-04-23T01:32:18.394Z,14.80
2023-04-23T01:34:48.606Z,14.80
2023-04-23T01:37:18.939Z,14.80
2023-04-23T01:39:47.843Z,14.80
2023-04-23T01:42:16.132Z,14.70
2023-04-23T01:44:44.648Z,14.70
2023-04-23T01:47:12.973Z,14.70
2023-04-23T01:49:41.449Z,14.70
2023-04-23T01:52:09.786Z,14.70
2023-04-23T01:54:39.606Z,14.70
2023-04-23T01:57:07.978Z,14.70
2023-04-23T01:59:36.741Z,14.70
2023-04-23T02:02:05.103Z,14.70
2023-04-23T02:04:34.397Z,14.60
2023-04-23T02:07:02.680Z,14.60
2023-04-23T02:09:30.963Z,14.60
2023-04-23T02:12:04.065Z,14.60
2023-04-23T02:14:32.735Z,14.60
2023-04-23T02:17:00.965Z,14.60
2023-04-23T02:19:31.091Z,14.60
2023-04-23T02:21:59.293Z,14.60
2023-04-23T02:24:27.516Z,14.50
2023-04-23T02:26:55.761Z,14.50
2023-04-23T02:29:25.320Z,14.50
2023-04-23T02:31:53.644Z,14.50
2023-04-23T02:34:21.897Z,14.50
2023-04-23T02:36:50.086Z,14.50
2023-04-23T02:39:18.303Z,14.50
2023-04-23T02:41:46.462Z,14.50
2023-04-23T02:44:14.721Z,14.50
2023-04-23T02:46:44.434Z,14.50
2023-04-23T02:49:12.729Z,14.50
2023-04-23T02:51:41.121Z,14.50
2023-04-23T02:54:09.388Z,14.50
2023-04-23T02:56:37.559Z,14.60
2023-04-23T02:59:06.600Z,14.50
2023-04-23T03:01:34.809Z,14.50
2023-04-23T03:04:05.430Z,14.50
2023-04-23T03:06:34.540Z,14.50
2023-04-23T03:09:02.998Z,14.50
2023-04-23T03:11:31.296Z,14.50
2023-04-23T03:13:59.993Z,14.50
2023-04-23T03:16:28.768Z,14.50
2023-04-23T03:18:57.287Z,14.40
2023-04-23T03:21:27.273Z,14.40
2023-04-23T03:23:55.541Z,14.40
2023-04-23T03:26:24.241Z,14.40
2023-04-23T03:28:52.884Z,14.40
2023-04-23T03:31:21.334Z,14.50
2023-04-23T03:33:49.677Z,14.40
2023-04-23T03:36:24.102Z,14.40
2023-04-23T03:38:53.642Z,14.40
2023-04-23T03:41:22.115Z,14.40
2023-04-23T03:43:51.330Z,14.40
2023-04-23T03:46:23.298Z,14.40
2023-04-23T03:48:51.618Z,14.40
2023-04-23T03:51:27.399Z,14.40
2023-04-23T03:53:57.979Z,14.40
2023-04-23T03:56:37.686Z,14.40
2023-04-23T03:59:19.084Z,14.40
2023-04-23T04:01:49.692Z,14.40
2023-04-23T04:04:19.829Z,14.40
2023-04-23T04:06:50.505Z,14.40
2023-04-23T04:09:20.359Z,14.60
2023-04-23T04:11:48.646Z,14.40
2023-04-23T04:14:17.456Z,14.40
2023-04-23T04:16:45.952Z,14.40
2023-04-23T04:19:14.446Z,14.30
2023-04-23T04:21:42.769Z,14.40
2023-04-23T04:24:11.565Z,14.40
2023-04-23T04:26:42.099Z,14.30
2023-04-23T04:29:10.597Z,14.40
2023-04-23T04:31:39.142Z,14.30
2023-04-23T04:34:09.074Z,14.40
2023-04-23T04:36:37.245Z,14.40
2023-04-23T04:39:06.578Z,14.30
2023-04-23T04:41:34.990Z,14.30
2023-04-23T04:44:04.562Z,14.30
2023-04-23T04:46:33.968Z,14.40
2023-04-23T04:49:02.206Z,14.30
2023-04-23T04:51:30.425Z,14.30
2023-04-23T04:53:58.832Z,14.30
2023-04-23T04:56:27.073Z,14.30
2023-04-23T04:58:55.299Z,14.30
2023-04-23T05:01:26.767Z,14.30
2023-04-23T05:03:55.081Z,14.30
2023-04-23T05:06:23.534Z,14.40
2023-04-23T05:08:51.895Z,14.30
2023-04-23T05:11:21.038Z,14.30
2023-04-23T05:13:50.088Z,14.30
2023-04-23T05:16:18.347Z,14.30
2023-04-23T05:18:48.147Z,14.30
2023-04-23T05:21:16.743Z,14.30
2023-04-23T05:23:44.925Z,14.30
2023-04-23T05:26:13.137Z,14.30
2023-04-23T05:28:41.675Z,14.30
2023-04-23T05:31:09.965Z,14.60
2023-04-23T05:33:49.409Z,14.40
2023-04-23T05:36:20.476Z,14.30
2023-04-23T05:38:49.255Z,14.30
2023-04-23T05:41:17.624Z,14.30
2023-04-23T05:43:45.855Z,14.30
2023-04-23T05:46:14.098Z,14.40
2023-04-23T05:48:42.372Z,14.40
2023-04-23T05:51:10.674Z,14.40
2023-04-23T05:53:40.278Z,14.40
2023-04-23T05:56:08.647Z,14.40
2023-04-23T05:58:38.820Z,14.40
2023-04-23T06:01:07.173Z,14.40
2023-04-23T06:03:37.086Z,14.40
2023-04-23T06:06:05.694Z,14.40
2023-04-23T06:08:33.919Z,14.40
2023-04-23T06:11:03.570Z,14.40
2023-04-23T06:13:31.936Z,14.40
2023-04-23T06:16:00.451Z,14.40
2023-04-23T06:18:28.836Z,14.40
2023-04-23T06:20:57.403Z,14.40
2023-04-23T06:23:25.645Z,14.40
2023-04-23T06:25:53.955Z,14.40
2023-04-23T06:28:23.617Z,14.50
2023-04-23T06:31:10.584Z,14.50
2023-04-23T06:33:38.951Z,14.50
2023-04-23T06:36:09.533Z,14.50
2023-04-23T06:38:37.845Z,14.50
2023-04-23T06:41:06.483Z,14.50
2023-04-23T06:43:36.086Z,14.50
2023-04-23T06:46:21.768Z,14.50
2023-04-23T06:48:49.988Z,14.50
2023-04-23T06:51:18.510Z,14.50
2023-04-23T06:53:47.525Z,14.60
2023-04-23T06:56:15.828Z,14.60
2023-04-23T06:58:45.352Z,14.60
2023-04-23T07:01:19.770Z,14.60
2023-04-23T07:03:49.266Z,14.60
2023-04-23T07:06:17.743Z,14.60
2023-04-23T07:08:46.087Z,14.60
2023-04-23T07:11:14.637Z,14.60
2023-04-23T07:13:45.020Z,14.60
2023-04-23T07:16:13.284Z,14.60
2023-04-23T07:18:41.687Z,14.60
2023-04-23T07:21:09.993Z,14.60
2023-04-23T07:23:38.257Z,14.60
2023-04-23T07:26:06.503Z,14.80
2023-04-23T07:28:34.751Z,14.70
2023-04-23T07:31:04.770Z,14.70
2023-04-23T07:33:33.032Z,14.70
2023-04-23T07:36:01.251Z,14.70
2023-04-23T07:38:29.486Z,14.70
2023-04-23T07:40:57.988Z,14.70
2023-04-23T07:43:26.192Z,14.70
2023-04-23T07:45:54.451Z,14.70
2023-04-23T07:48:24.176Z,14.70
2023-04-23T07:50:52.479Z,14.80
2023-04-23T07:53:20.758Z,14.80
2023-04-23T07:55:49.061Z,14.80
2023-04-23T07:58:17.345Z,14.80
2023-04-23T08:00:45.674Z,14.80
2023-04-23T08:03:14.256Z,14.80
2023-04-23T08:05:44.256Z,14.90
2023-04-23T08:08:13.908Z,14.90
2023-04-23T08:10:42.487Z,14.90
2023-04-23T08:13:11.167Z,14.90
2023-04-23T08:15:39.421Z,14.90
2023-04-23T08:18:07.971Z,14.90
2023-04-23T08:20:36.555Z,15.00
2023-04-23T08:23:06.267Z,15.00
2023-04-23T08:25:34.719Z,15.00
2023-04-23T08:28:03.796Z,15.00
2023-04-23T08:30:32.076Z,15.00
2023-04-23T08:33:03.798Z,15.00
2023-04-23T08:35:32.099Z,15.00
2023-04-23T08:38:01.699Z,15.00
2023-04-23T08:40:36.448Z,15.10
2023-04-23T08:43:11.174Z,15.10
2023-04-23T08:45:44.418Z,15.10
2023-04-23T08:48:12.830Z,15.10
2023-04-23T08:50:44.270Z,15.10
2023-04-23T08:53:16.684Z,15.10
2023-04-23T08:55:46.979Z,15.20
2023-04-23T08:58:15.767Z,15.20
2023-04-23T09:00:44.942Z,15.20
2023-04-23T09:03:13.670Z,15.20
2023-04-23T09:05:42.224Z,15.20
2023-04-23T09:08:11.935Z,15.20
2023-04-23T09:10:43.257Z,15.20
2023-04-23T09:13:13.885Z,15.30
2023-04-23T09:15:43.816Z,15.50
2023-04-23T09:18:12.198Z,15.30
2023-04-23T09:20:40.833Z,15.30
2023-04-23T09:23:09.448Z,15.30
2023-04-23T09:25:37.911Z,15.40
2023-04-23T09:28:09.045Z,15.40
2023-04-23T09:30:44.172Z,15.40
2023-04-23T09:33:13.548Z,15.50
2023-04-23T09:35:43.344Z,15.50
2023-04-23T09:38:11.600Z,15.50
2023-04-23T09:40:39.844Z,15.50
2023-04-23T09:43:12.051Z,15.60
2023-04-23T09:45:50.537Z,15.60
2023-04-23T09:48:18.841Z,15.60
2023-04-23T09:50:47.610Z,15.70
2023-04-23T09:53:15.879Z,15.70
2023-04-23T09:55:46.275Z,15.70
2023-04-23T09:58:16.322Z,15.70
2023-04-23T10:00:44.979Z,15.80
2023-04-23T10:03:14.946Z,16.10
2023-04-23T10:06:00.248Z,15.80
2023-04-23T10:08:30.006Z,15.80
2023-04-23T10:11:10.173Z,15.90
2023-04-23T10:13:46.948Z,15.90
2023-04-23T10:16:22.428Z,15.90
2023-04-23T10:18:56.978Z,15.90
2023-04-23T10:21:33.978Z,16.00
2023-04-23T10:24:10.756Z,16.00
2023-04-23T10:26:40.256Z,16.00
2023-04-23T10:29:14.531Z,16.00
2023-04-23T10:31:44.577Z,16.10
2023-04-23T10:34:14.651Z,16.10
2023-04-23T10:36:43.071Z,16.10
2023-04-23T10:39:12.352Z,16.10
2023-04-23T10:41:43.393Z,16.20
2023-04-23T10:44:15.940Z,16.20
2023-04-23T10:46:53.728Z,16.20
2023-04-23T10:49:24.878Z,16.20
2023-04-23T10:54:34.035Z,16.30
2023-04-23T10:57:04.207Z,16.30
2023-04-23T10:59:33.813Z,16.30
2023-04-23T11:02:08.826Z,16.40
2023-04-23T11:04:45.926Z,16.30
2023-04-23T11:07:15.026Z,16.40
2023-04-23T11:09:45.274Z,16.40
2023-04-23T11:12:14.987Z,16.40
2023-04-23T11:14:47.517Z,16.40
2023-04-23T11:17:17.713Z,16.40
2023-04-23T11:20:13.795Z,16.40
2023-04-23T11:22:44.459Z,16.40
2023-04-23T11:25:14.979Z,16.40
2023-04-23T11:27:44.693Z,16.40
2023-04-23T11:30:14.816Z,16.40
2023-04-23T11:32:45.615Z,16.40
2023-04-23T11:35:16.877Z,16.50
2023-04-23T11:37:45.925Z,16.50
2023-04-23T11:40:19.068Z,16.50
2023-04-23T11:42:50.504Z,16.50
2023-04-23T11:45:19.215Z,16.50
2023-04-23T11:47:48.767Z,16.50
2023-04-23T11:50:22.896Z,16.60
2023-04-23T11:52:52.666Z,16.60
2023-04-23T11:55:21.673Z,16.60
2023-04-23T11:57:51.403Z,16.60
2023-04-23T12:00:21.418Z,16.60
2023-04-23T12:02:57.948Z,16.60
2023-04-23T12:05:32.857Z,16.70
2023-04-23T12:08:11.616Z,16.60
2023-04-23T12:10:47.574Z,16.70
2023-04-23T12:13:16.969Z,16.70
2023-04-23T12:15:50.117Z,16.70
2023-04-23T12:18:19.544Z,16.70
2023-04-23T12:20:49.473Z,16.70
2023-04-23T12:23:17.750Z,16.80
2023-04-23T12:25:46.080Z,16.80
2023-04-23T12:28:14.305Z,16.70
2023-04-23T12:30:46.178Z,16.80
2023-04-23T12:33:14.823Z,16.80
2023-04-23T12:35:43.857Z,16.80
2023-04-23T12:38:24.776Z,16.90
2023-04-23T12:40:53.344Z,16.90
2023-04-23T12:43:21.629Z,16.90
2023-04-23T12:45:51.186Z,16.90
2023-04-23T12:48:19.933Z,17.00
2023-04-23T12:50:48.883Z,17.00
2023-04-23T12:53:17.262Z,17.00
2023-04-23T12:55:48.403Z,17.10
2023-04-23T12:58:16.608Z,17.10
2023-04-23T13:00:44.956Z,17.10
2023-04-23T13:03:15.566Z,17.20
2023-04-23T13:05:44.047Z,17.20
2023-04-23T13:08:12.281Z,17.30
2023-04-23T13:10:40.418Z,17.30
2023-04-23T13:13:09.973Z,17.30
2023-04-23T13:15:38.192Z,17.30
2023-04-23T13:18:07.082Z,17.30
2023-04-23T13:20:35.272Z,17.30
2023-04-23T13:23:03.838Z,17.40
2023-04-23T13:25:32.094Z,17.40
2023-04-23T13:28:00.446Z,17.40
2023-04-23T13:30:30.037Z,17.40
2023-04-23T13:32:59.279Z,17.40
2023-04-23T13:35:27.616Z,17.40
2023-04-23T13:37:55.856Z,17.50
2023-04-23T13:40:24.090Z,17.50
2023-04-23T13:42:55.020Z,17.50
2023-04-23T13:45:23.304Z,17.50
2023-04-23T13:47:52.966Z,17.50
2023-04-23T13:50:21.488Z,17.60
2023-04-23T13:52:49.802Z,17.60
2023-04-23T13:55:18.296Z,17.60
2023-04-23T13:57:46.590Z,17.60
2023-04-23T14:00:16.025Z,17.60
2023-04-23T14:02:44.315Z,17.60
2023-04-23T14:05:13.987Z,17.60
2023-04-23T14:07:42.331Z,17.70
2023-04-23T14:10:11.324Z,17.70
2023-04-23T14:12:39.927Z,17.70
2023-04-23T14:15:09.674Z,17.60
2023-04-23T14:17:40.824Z,17.70
2023-04-23T14:20:09.722Z,17.60
2023-04-23T14:22:39.645Z,17.60
2023-04-23T14:25:11.305Z,17.60
2023-04-23T14:27:42.412Z,17.60
2023-04-23T14:30:17.021Z,17.60
2023-04-23T14:32:49.305Z,17.60
2023-04-23T14:35:24.558Z,17.60
2023-04-23T14:37:59.001Z,17.60
2023-04-23T14:40:27.264Z,17.50
2023-04-23T14:42:59.370Z,17.50
2023-04-23T14:45:33.164Z,17.50
2023-04-23T14:48:01.694Z,17.50
2023-04-23T14:50:29.953Z,17.50
2023-04-23T14:52:59.528Z,17.50
2023-04-23T14:55:27.952Z,17.50
2023-04-23T14:57:56.182Z,17.50
2023-04-23T15:00:24.531Z,17.40
2023-04-23T15:02:53.297Z,17.40
2023-04-23T15:05:21.787Z,17.40
2023-04-23T15:07:51.470Z,17.40
2023-04-23T15:10:23.248Z,17.40
2023-04-23T15:12:57.912Z,17.40
2023-04-23T15:15:43.807Z,17.40
2023-04-23T15:18:14.420Z,17.40
2023-04-23T15:20:43.071Z,17.30
2023-04-23T15:23:11.571Z,17.30
2023-04-23T15:25:41.215Z,17.20
2023-04-23T15:28:09.545Z,17.20
2023-04-23T15:30:39.743Z,17.20
2023-04-23T15:33:08.111Z,17.10
2023-04-23T15:35:36.434Z,17.00
2023-04-23T15:38:05.024Z,17.00
2023-04-23T15:40:33.364Z,17.00
2023-04-23T15:43:03.118Z,16.60
2023-04-23T15:45:31.498Z,16.90
2023-04-23T15:47:59.763Z,16.80
2023-04-23T15:50:28.014Z,16.80
2023-04-23T15:52:58.293Z,16.80
2023-04-23T15:55:27.003Z,16.70
2023-04-23T15:57:55.278Z,16.70
2023-04-23T16:00:24.923Z,16.60
2023-04-23T16:02:53.481Z,16.60
2023-04-23T16:05:22.109Z,16.60
2023-04-23T16:07:50.357Z,16.50
2023-04-23T16:10:18.661Z,16.60
2023-04-23T16:12:48.579Z,16.50
2023-04-23T16:15:17.056Z,16.50
2023-04-23T16:17:46.721Z,16.50
2023-04-23T16:20:15.062Z,16.40
2023-04-23T16:22:43.271Z,16.40
2023-04-23T16:25:12.416Z,16.40
2023-04-23T16:27:41.271Z,16.40
2023-04-23T16:30:10.340Z,16.40
2023-04-23T16:32:38.853Z,16.40
2023-04-23T16:35:09.566Z,16.40
2023-04-23T16:37:37.800Z,16.40
2023-04-23T16:40:07.205Z,16.40
2023-04-23T16:42:35.546Z,16.40
2023-04-23T16:45:03.822Z,16.40
2023-04-23T16:47:32.003Z,16.40
2023-04-23T16:50:00.522Z,16.40
2023-04-23T16:52:30.202Z,16.30
2023-04-23T16:54:58.425Z,16.30
2023-04-23T16:57:27.247Z,16.30
2023-04-23T16:59:55.579Z,16.30
2023-04-23T17:02:23.968Z,16.30
2023-04-23T17:04:52.399Z,16.30
2023-04-23T17:07:21.297Z,16.30
2023-04-23T17:09:50.944Z,16.30
2023-04-23T17:12:20.382Z,16.30
2023-04-23T17:14:48.545Z,16.30
2023-04-23T17:17:16.866Z,16.30
2023-04-23T17:19:47.837Z,16.30
2023-04-23T17:22:16.368Z,16.30
2023-04-23T17:24:44.916Z,16.20
2023-04-23T17:27:15.070Z,16.30
2023-04-23T17:29:43.323Z,16.20
2023-04-23T17:32:11.826Z,16.20
2023-04-23T17:34:40.433Z,16.30
2023-04-23T17:37:08.854Z,16.20
2023-04-23T17:39:37.368Z,16.20
2023-04-23T17:42:07.452Z,16.20
2023-04-23T17:44:37.318Z,16.20
2023-04-23T17:47:05.902Z,16.20
2023-04-23T17:49:34.149Z,16.20
2023-04-23T17:52:03.358Z,16.20
2023-04-23T17:54:31.816Z,16.20
2023-04-23T17:57:00.236Z,16.20
2023-04-23T17:59:28.965Z,16.20
2023-04-23T18:01:58.747Z,16.20
2023-04-23T18:04:28.458Z,16.20
2023-04-23T18:06:56.960Z,16.20
2023-04-23T18:09:25.347Z,16.10
2023-04-23T18:11:53.691Z,16.20
2023-04-23T18:14:22.058Z,16.10
2023-04-23T18:16:50.826Z,16.10
2023-04-23T18:19:20.526Z,16.10
2023-04-23T18:21:49.993Z,16.10
2023-04-23T18:24:18.696Z,16.10
2023-04-23T18:26:48.590Z,16.10
2023-04-23T18:29:16.866Z,16.10
2023-04-23T18:31:45.215Z,16.10
2023-04-23T18:34:19.194Z,16.10
2023-04-23T18:36:50.765Z,16.10
2023-04-23T18:39:19.048Z,16.10
2023-04-23T18:41:48.525Z,16.10
2023-04-23T18:44:17.409Z,16.10
2023-04-23T18:46:45.807Z,16.00
2023-04-23T18:49:44.772Z,16.10
2023-04-23T18:52:14.907Z,16.00
2023-04-23T18:54:44.218Z,16.00
2023-04-23T18:57:12.620Z,16.00
2023-04-23T18:59:41.511Z,16.00
2023-04-23T19:02:10.937Z,16.00
2023-04-23T19:04:40.501Z,16.00
2023-04-23T19:07:08.989Z,16.00
2023-04-23T19:09:40.195Z,16.00
2023-04-23T19:12:08.841Z,16.00
2023-04-23T19:14:37.080Z,16.00
2023-04-23T19:17:05.476Z,16.00
2023-04-23T19:19:35.511Z,16.00
2023-04-23T19:22:04.063Z,15.90
2023-04-23T19:24:34.386Z,16.00
2023-04-23T19:27:05.428Z,15.90
2023-04-23T19:29:33.964Z,15.90
2023-04-23T19:32:02.508Z,15.90
2023-04-23T19:34:30.883Z,15.90
2023-04-23T19:36:59.340Z,15.90
2023-04-23T19:39:27.761Z,15.90
2023-04-23T19:41:56.219Z,15.90
2023-04-23T19:44:26.036Z,15.90
2023-04-23T19:46:57.573Z,15.80
2023-04-23T19:49:29.095Z,16.00
2023-04-23T19:51:58.732Z,15.80
2023-04-23T19:54:27.557Z,15.80
2023-04-23T19:56:55.837Z,15.80
2023-04-23T19:59:25.443Z,15.70
2023-04-23T20:01:53.775Z,15.70
2023-04-23T20:04:22.202Z,15.70
2023-04-23T20:06:50.915Z,15.70
2023-04-23T20:09:20.384Z,15.70
2023-04-23T20:11:48.946Z,15.70
2023-04-23T20:14:17.165Z,15.60
2023-04-23T20:16:47.425Z,15.60
2023-04-23T20:19:15.958Z,15.60
2023-04-23T20:21:45.688Z,15.60
2023-04-23T20:24:15.027Z,15.50
2023-04-23T20:26:43.598Z,15.50
2023-04-23T20:29:11.829Z,15.50
2023-04-23T20:31:40.175Z,15.40
2023-04-23T20:34:11.002Z,15.40
2023-04-23T20:36:39.262Z,15.40
2023-04-23T20:39:08.222Z,15.60
2023-04-23T20:41:36.696Z,15.30
2023-04-23T20:44:06.080Z,15.30
2023-04-23T20:46:34.398Z,15.30
2023-04-23T20:49:03.280Z,15.20
2023-04-23T20:51:34.316Z,15.20
2023-04-23T20:54:02.999Z,15.20
2023-04-23T20:56:31.638Z,15.20
2023-04-23T20:58:59.948Z,15.10
2023-04-23T21:01:28.437Z,15.10
2023-04-23T21:03:56.975Z,15.10
2023-04-23T21:06:25.471Z,15.00
2023-04-23T21:08:55.078Z,15.00
2023-04-23T21:11:24.808Z,15.00
2023-04-23T21:13:53.351Z,14.90
2023-04-23T21:16:21.735Z,14.90
2023-04-23T21:18:49.963Z,14.90
2023-04-23T21:21:18.204Z,14.90
2023-04-23T21:23:47.316Z,14.90
2023-04-23T21:26:16.901Z,14.90
2023-04-23T21:28:45.230Z,14.90
2023-04-23T21:31:18.813Z,14.90
2023-04-23T21:33:47.129Z,14.90
2023-04-23T21:36:15.773Z,14.90
2023-04-23T21:38:44.164Z,14.90
2023-04-23T21:41:12.446Z,14.90
2023-04-23T21:43:42.048Z,14.90
2023-04-23T21:46:10.334Z,14.90
2023-04-23T21:48:38.650Z,14.80
2023-04-23T21:51:07.873Z,14.90
2023-04-23T21:53:36.120Z,14.80
2023-04-23T21:56:04.459Z,14.80
2023-04-23T21:58:34.706Z,14.80
2023-04-23T22:01:04.578Z,14.80
2023-04-23T22:03:38.145Z,14.80
2023-04-23T22:06:09.505Z,14.80
2023-04-23T22:08:40.368Z,14.80
2023-04-23T22:11:09.418Z,14.80
2023-04-23T22:13:37.921Z,14.80
2023-04-23T22:16:20.439Z,14.80
2023-04-23T22:18:55.519Z,14.80
2023-04-23T22:21:23.943Z,14.80
2023-04-23T22:23:52.209Z,14.80
2023-04-23T22:26:21.174Z,14.80
2023-04-23T22:28:49.377Z,14.70
2023-04-23T22:31:19.312Z,14.80
2023-04-23T22:33:47.658Z,14.70
2023-04-23T22:36:16.884Z,14.70
2023-04-23T22:38:45.455Z,14.70
2023-04-23T22:41:13.694Z,14.70
2023-04-23T22:43:41.946Z,14.70
2023-04-23T22:46:10.594Z,14.70
2023-04-23T22:48:45.055Z,14.80
2023-04-23T22:51:13.376Z,14.70
2023-04-23T22:53:41.826Z,14.70
2023-04-23T22:56:10.247Z,14.70
2023-04-23T22:58:38.669Z,14.70
2023-04-23T23:01:06.957Z,14.80
2023-04-23T23:03:35.497Z,14.70
2023-04-23T23:06:05.517Z,14.70
2023-04-23T23:08:33.754Z,14.70
2023-04-23T23:11:02.130Z,14.70
2023-04-23T23:13:30.655Z,14.70
2023-04-23T23:16:02.244Z,14.80
2023-04-23T23:18:30.543Z,14.80
2023-04-23T23:20:58.764Z,14.70
2023-04-23T23:23:28.355Z,14.70
2023-04-23T23:25:58.235Z,14.70
2023-04-23T23:28:28.154Z,14.80
2023-04-23T23:30:57.793Z,14.70
2023-04-23T23:33:27.096Z,14.70
2023-04-23T23:35:55.753Z,14.70
2023-04-23T23:38:23.917Z,14.70
2023-04-23T23:40:53.592Z,14.80
2023-04-23T23:43:21.794Z,14.70
2023-04-23T23:45:50.054Z,14.80
2023-04-23T23:48:18.728Z,14.80
2023-04-23T23:50:46.990Z,14.70
2023-04-23T23:53:15.282Z,14.80
2023-04-23T23:55:43.519Z,14.70
2023-04-23T23:58:13.116Z,14.70
